DAL494 KLAX-KDTW
Flight info
| Callsign | DAL494 |
|---|---|
| Flight time | N/A |
| Altitude | 37000 |
| Route | ORCKA5 LAS J146 DICEE BDROC FQF J128 HCT KP72G CID PLL SAMPL HAYLL3 |
| Aircraft | A21N/M-SADE2E3GHIJ4J5M1P2RWXYZ/LB1D1 |
Departure
| Time | 2026-04-21 00:26 |
|---|---|
| Airport | Los Angeles International Airport (KLAX) |
Arrival
| Time | N/A |
|---|---|
| Airport | Detroit Metropolitan Wayne County Airport (KDTW) |
| Time | Latitude | Longitude | Altitude | Speed | Heading |
|---|---|---|---|---|---|
| 2026-04-20 23:55 | 33.94721 | -118.40693 | 129 ft | 0 kts | 206° |
| 2026-04-21 00:13 | 33.94732 | -118.40687 | 129 ft | 2 kts | 205° |
| 2026-04-21 00:14 | 33.94740 | -118.40682 | 129 ft | 1 kts | 206° |
| 2026-04-21 00:14 | 33.94755 | -118.40679 | 129 ft | 2 kts | 163° |
| 2026-04-21 00:14 | 33.94768 | -118.40688 | 129 ft | 2 kts | 125° |
| 2026-04-21 00:14 | 33.94773 | -118.40705 | 129 ft | 1 kts | 89° |
| 2026-04-21 00:15 | 33.94772 | -118.40712 | 129 ft | 1 kts | 78° |
| 2026-04-21 00:15 | 33.94772 | -118.40716 | 129 ft | 0 kts | 82° |
| 2026-04-21 00:18 | 33.94773 | -118.40700 | 129 ft | 4 kts | 82° |
| 2026-04-21 00:18 | 33.94780 | -118.40636 | 129 ft | 9 kts | 76° |
| 2026-04-21 00:18 | 33.94842 | -118.40601 | 128 ft | 11 kts | 358° |
| 2026-04-21 00:19 | 33.94870 | -118.40530 | 127 ft | 11 kts | 85° |
| 2026-04-21 00:19 | 33.94881 | -118.40429 | 126 ft | 12 kts | 82° |
| 2026-04-21 00:19 | 33.94894 | -118.40316 | 125 ft | 14 kts | 83° |
| 2026-04-21 00:19 | 33.94907 | -118.40192 | 124 ft | 15 kts | 83° |
| 2026-04-21 00:20 | 33.94920 | -118.40057 | 123 ft | 16 kts | 84° |
| 2026-04-21 00:20 | 33.94935 | -118.39951 | 120 ft | 8 kts | 66° |
| 2026-04-21 00:20 | 33.94944 | -118.39935 | 120 ft | 0 kts | 46° |
| 2026-04-21 00:22 | 33.94948 | -118.39931 | 120 ft | 2 kts | 42° |
| 2026-04-21 00:22 | 33.94983 | -118.39914 | 119 ft | 8 kts | 6° |
| 2026-04-21 00:22 | 33.95039 | -118.39951 | 119 ft | 10 kts | 281° |
| 2026-04-21 00:23 | 33.95039 | -118.39985 | 119 ft | 0 kts | 265° |
| 2026-04-21 00:25 | 33.95038 | -118.39999 | 119 ft | 14 kts | 265° |
| 2026-04-21 00:25 | 33.94994 | -118.40424 | 125 ft | 85 kts | 263° |
| 2026-04-21 00:25 | 33.94896 | -118.41379 | 129 ft | 143 kts | 263° |
| 2026-04-21 00:26 | 33.94761 | -118.42748 | 285 ft | 175 kts | 263° |
| 2026-04-21 00:26 | 33.94585 | -118.44218 | 860 ft | 181 kts | 261° |
| 2026-04-21 00:26 | 33.94431 | -118.45672 | 1595 ft | 179 kts | 262° |
| 2026-04-21 00:26 | 33.94280 | -118.47234 | 2049 ft | 193 kts | 263° |
| 2026-04-21 00:27 | 33.94118 | -118.48871 | 2489 ft | 207 kts | 263° |
| 2026-04-21 00:27 | 33.93933 | -118.50662 | 2848 ft | 227 kts | 263° |
| 2026-04-21 00:27 | 33.93723 | -118.52628 | 3233 ft | 247 kts | 263° |
| 2026-04-21 00:27 | 33.93494 | -118.54736 | 3760 ft | 262 kts | 262° |
| 2026-04-21 00:28 | 33.93265 | -118.56918 | 4526 ft | 267 kts | 262° |
| 2026-04-21 00:28 | 33.93044 | -118.59134 | 5313 ft | 270 kts | 262° |
| 2026-04-21 00:28 | 33.92828 | -118.61398 | 6138 ft | 271 kts | 261° |
| 2026-04-21 00:28 | 33.92284 | -118.63515 | 6859 ft | 272 kts | 237° |
| 2026-04-21 00:29 | 33.90963 | -118.65134 | 7531 ft | 274 kts | 210° |
| 2026-04-21 00:29 | 33.89184 | -118.65868 | 8260 ft | 274 kts | 183° |
| 2026-04-21 00:29 | 33.87323 | -118.65511 | 8979 ft | 276 kts | 157° |
| 2026-04-21 00:29 | 33.85796 | -118.64138 | 9652 ft | 283 kts | 130° |
| 2026-04-21 00:30 | 33.84972 | -118.61992 | 10313 ft | 293 kts | 103° |
| 2026-04-21 00:30 | 33.85101 | -118.59502 | 10657 ft | 315 kts | 73° |
| 2026-04-21 00:30 | 33.86146 | -118.57099 | 10976 ft | 333 kts | 60° |
| 2026-04-21 00:30 | 33.87426 | -118.54673 | 11263 ft | 350 kts | 59° |
| 2026-04-21 00:31 | 33.88746 | -118.52176 | 11573 ft | 363 kts | 59° |
| 2026-04-21 00:31 | 33.90103 | -118.49549 | 12161 ft | 368 kts | 60° |
| 2026-04-21 00:31 | 33.91418 | -118.46959 | 12858 ft | 368 kts | 60° |
| 2026-04-21 00:31 | 33.92760 | -118.44303 | 13427 ft | 372 kts | 59° |
| 2026-04-21 00:32 | 33.94189 | -118.41702 | 13958 ft | 378 kts | 57° |
| 2026-04-21 00:32 | 33.95679 | -118.39072 | 14498 ft | 382 kts | 57° |
| 2026-04-21 00:32 | 33.97188 | -118.36424 | 15035 ft | 386 kts | 57° |
| 2026-04-21 00:32 | 33.98731 | -118.33713 | 15539 ft | 390 kts | 58° |
| 2026-04-21 00:33 | 34.00273 | -118.30994 | 16083 ft | 393 kts | 58° |
| 2026-04-21 00:33 | 34.01821 | -118.28260 | 16694 ft | 393 kts | 58° |
| 2026-04-21 00:33 | 34.03373 | -118.25526 | 17193 ft | 397 kts | 58° |
| 2026-04-21 00:33 | 34.04934 | -118.22774 | 17644 ft | 401 kts | 58° |
| 2026-04-21 00:34 | 34.06506 | -118.19997 | 18117 ft | 405 kts | 58° |
| 2026-04-21 00:34 | 34.08106 | -118.17168 | 18624 ft | 407 kts | 58° |
| 2026-04-21 00:34 | 34.09687 | -118.14372 | 19120 ft | 409 kts | 58° |
| 2026-04-21 00:34 | 34.11291 | -118.11533 | 19598 ft | 411 kts | 58° |
| 2026-04-21 00:35 | 34.12913 | -118.08664 | 20063 ft | 414 kts | 58° |
| 2026-04-21 00:35 | 34.14537 | -118.05787 | 20507 ft | 416 kts | 58° |
| 2026-04-21 00:35 | 34.16153 | -118.02921 | 20947 ft | 418 kts | 58° |
| 2026-04-21 00:35 | 34.17807 | -117.99984 | 21407 ft | 420 kts | 58° |
| 2026-04-21 00:36 | 34.19443 | -117.97078 | 21848 ft | 423 kts | 58° |
| 2026-04-21 00:36 | 34.21107 | -117.94116 | 22234 ft | 426 kts | 58° |
| 2026-04-21 00:36 | 34.22752 | -117.91187 | 22644 ft | 428 kts | 58° |
| 2026-04-21 00:36 | 34.24426 | -117.88202 | 23064 ft | 429 kts | 58° |
| 2026-04-21 00:37 | 34.26096 | -117.85220 | 23431 ft | 432 kts | 58° |
| 2026-04-21 00:37 | 34.27775 | -117.82220 | 23800 ft | 435 kts | 58° |
| 2026-04-21 00:37 | 34.29476 | -117.79177 | 24158 ft | 437 kts | 58° |
| 2026-04-21 00:37 | 34.31187 | -117.76115 | 24527 ft | 439 kts | 58° |
| 2026-04-21 00:38 | 34.32888 | -117.73069 | 24869 ft | 441 kts | 58° |
| 2026-04-21 00:38 | 34.34620 | -117.69969 | 25219 ft | 443 kts | 58° |
| 2026-04-21 00:38 | 34.36366 | -117.66926 | 25538 ft | 446 kts | 56° |
| 2026-04-21 00:38 | 34.38189 | -117.63879 | 25854 ft | 449 kts | 55° |
| 2026-04-21 00:39 | 34.39942 | -117.60973 | 26160 ft | 451 kts | 55° |
| 2026-04-21 00:39 | 34.41787 | -117.57913 | 26472 ft | 452 kts | 56° |
| 2026-04-21 00:39 | 34.43639 | -117.54825 | 26788 ft | 454 kts | 56° |
| 2026-04-21 00:39 | 34.45501 | -117.51712 | 27085 ft | 456 kts | 55° |
| 2026-04-21 00:40 | 34.47358 | -117.48598 | 27382 ft | 458 kts | 56° |
| 2026-04-21 00:40 | 34.49217 | -117.45474 | 27663 ft | 460 kts | 56° |
| 2026-04-21 00:40 | 34.51091 | -117.42320 | 27956 ft | 462 kts | 55° |
| 2026-04-21 00:40 | 34.52964 | -117.39167 | 28235 ft | 463 kts | 56° |
| 2026-04-21 00:41 | 34.54837 | -117.36012 | 28536 ft | 465 kts | 56° |
| 2026-04-21 00:41 | 34.56733 | -117.32813 | 28810 ft | 466 kts | 56° |
| 2026-04-21 00:41 | 34.58625 | -117.29617 | 29075 ft | 468 kts | 56° |
| 2026-04-21 00:41 | 34.60541 | -117.26383 | 29310 ft | 471 kts | 56° |
| 2026-04-21 00:42 | 34.62467 | -117.23121 | 29567 ft | 473 kts | 56° |
| 2026-04-21 00:42 | 34.64402 | -117.19845 | 29821 ft | 474 kts | 56° |
| 2026-04-21 00:42 | 34.66312 | -117.16608 | 30008 ft | 476 kts | 56° |
| 2026-04-21 00:43 | 34.70169 | -117.10066 | 30005 ft | 476 kts | 56° |
| 2026-04-21 00:43 | 34.74000 | -117.03548 | 29997 ft | 475 kts | 56° |
| 2026-04-21 00:44 | 34.77823 | -116.97031 | 29994 ft | 475 kts | 56° |
| 2026-04-21 00:44 | 34.81657 | -116.90485 | 30006 ft | 475 kts | 56° |
| 2026-04-21 00:45 | 34.87360 | -116.80726 | 30006 ft | 473 kts | 57° |
| 2026-04-21 00:45 | 34.91192 | -116.74244 | 29994 ft | 474 kts | 54° |
| 2026-04-21 00:46 | 34.95473 | -116.68156 | 29969 ft | 475 kts | 49° |
| 2026-04-21 00:46 | 34.99999 | -116.62225 | 29943 ft | 476 kts | 48° |
| 2026-04-21 00:47 | 35.04483 | -116.56345 | 29927 ft | 476 kts | 49° |
| 2026-04-21 00:47 | 35.08975 | -116.50425 | 29920 ft | 475 kts | 49° |
| 2026-04-21 00:48 | 35.13435 | -116.44527 | 29921 ft | 475 kts | 49° |
| 2026-04-21 00:48 | 35.17915 | -116.38592 | 29927 ft | 475 kts | 49° |
| 2026-04-21 00:49 | 35.22372 | -116.32673 | 29936 ft | 474 kts | 49° |
| 2026-04-21 00:49 | 35.26833 | -116.26739 | 29959 ft | 476 kts | 49° |
| 2026-04-21 00:50 | 35.29064 | -116.23766 | 30184 ft | 477 kts | 49° |
| 2026-04-21 00:50 | 35.31325 | -116.20752 | 30490 ft | 477 kts | 49° |
| 2026-04-21 00:50 | 35.33551 | -116.17783 | 30780 ft | 478 kts | 49° |
| 2026-04-21 00:50 | 35.35802 | -116.14777 | 31138 ft | 476 kts | 49° |
| 2026-04-21 00:51 | 35.38026 | -116.11805 | 31479 ft | 475 kts | 49° |
| 2026-04-21 00:51 | 35.40254 | -116.08826 | 31801 ft | 475 kts | 49° |
| 2026-04-21 00:51 | 35.42479 | -116.05849 | 32114 ft | 474 kts | 49° |
| 2026-04-21 00:51 | 35.44706 | -116.02863 | 32438 ft | 474 kts | 49° |
| 2026-04-21 00:52 | 35.46905 | -115.99912 | 32729 ft | 473 kts | 49° |
| 2026-04-21 00:52 | 35.49141 | -115.96911 | 33018 ft | 474 kts | 49° |
| 2026-04-21 00:52 | 35.51342 | -115.93957 | 33295 ft | 474 kts | 49° |
| 2026-04-21 00:52 | 35.53568 | -115.90958 | 33591 ft | 473 kts | 49° |
| 2026-04-21 00:53 | 35.55761 | -115.88007 | 33900 ft | 473 kts | 49° |
| 2026-04-21 00:53 | 35.57983 | -115.85014 | 34251 ft | 471 kts | 49° |
| 2026-04-21 00:53 | 35.60191 | -115.82037 | 34611 ft | 470 kts | 49° |
| 2026-04-21 00:53 | 35.62366 | -115.79099 | 34960 ft | 469 kts | 49° |
| 2026-04-21 00:54 | 35.64544 | -115.76149 | 35271 ft | 468 kts | 49° |
| 2026-04-21 00:54 | 35.66735 | -115.73151 | 35548 ft | 468 kts | 50° |
| 2026-04-21 00:54 | 35.68893 | -115.70184 | 35772 ft | 469 kts | 50° |
| 2026-04-21 00:54 | 35.71051 | -115.67211 | 35989 ft | 470 kts | 50° |
| 2026-04-21 00:55 | 35.73245 | -115.64189 | 36219 ft | 470 kts | 50° |
| 2026-04-21 00:55 | 35.75402 | -115.61216 | 36428 ft | 471 kts | 50° |
| 2026-04-21 00:55 | 35.77564 | -115.58229 | 36632 ft | 471 kts | 50° |
| 2026-04-21 00:55 | 35.79767 | -115.55189 | 36805 ft | 472 kts | 50° |
| 2026-04-21 00:56 | 35.81928 | -115.52201 | 36980 ft | 473 kts | 50° |
| 2026-04-21 00:56 | 35.84128 | -115.49159 | 37052 ft | 474 kts | 50° |
| 2026-04-21 00:56 | 35.88499 | -115.43105 | 37050 ft | 474 kts | 50° |
| 2026-04-21 00:57 | 35.92858 | -115.37058 | 37043 ft | 474 kts | 50° |
| 2026-04-21 00:57 | 35.97232 | -115.30978 | 37017 ft | 473 kts | 51° |
| 2026-04-21 00:58 | 36.01564 | -115.24941 | 36986 ft | 472 kts | 51° |
| 2026-04-21 00:58 | 36.05608 | -115.18604 | 36970 ft | 469 kts | 58° |
| 2026-04-21 00:59 | 36.08953 | -115.11755 | 36967 ft | 465 kts | 65° |
| 2026-04-21 00:59 | 36.11580 | -115.04467 | 36960 ft | 462 kts | 71° |
| 2026-04-21 01:00 | 36.13832 | -114.97079 | 36954 ft | 462 kts | 72° |
| 2026-04-21 01:00 | 36.16087 | -114.89674 | 36956 ft | 462 kts | 72° |
| 2026-04-21 01:01 | 36.18308 | -114.82444 | 36956 ft | 461 kts | 71° |
| 2026-04-21 01:01 | 36.20583 | -114.75040 | 36960 ft | 461 kts | 72° |
| 2026-04-21 01:02 | 36.22850 | -114.67637 | 36972 ft | 460 kts | 71° |
| 2026-04-21 01:02 | 36.25090 | -114.60295 | 36973 ft | 459 kts | 71° |
| 2026-04-21 01:03 | 36.27336 | -114.52917 | 36974 ft | 458 kts | 71° |
| 2026-04-21 01:03 | 36.29571 | -114.45551 | 36977 ft | 458 kts | 71° |
| 2026-04-21 01:04 | 36.31796 | -114.38200 | 36990 ft | 458 kts | 71° |
| 2026-04-21 01:04 | 36.34036 | -114.30783 | 36997 ft | 457 kts | 72° |
| 2026-04-21 01:05 | 36.36247 | -114.23442 | 37002 ft | 457 kts | 72° |
| 2026-04-21 01:05 | 36.38457 | -114.16082 | 37001 ft | 456 kts | 72° |
| 2026-04-21 01:06 | 36.40664 | -114.08718 | 37001 ft | 456 kts | 72° |
| 2026-04-21 01:06 | 36.42853 | -114.01389 | 37008 ft | 455 kts | 72° |
| 2026-04-21 01:07 | 36.45052 | -113.94008 | 37029 ft | 454 kts | 71° |
| 2026-04-21 01:07 | 36.47223 | -113.86706 | 37051 ft | 454 kts | 71° |
| 2026-04-21 01:08 | 36.49406 | -113.79342 | 37073 ft | 454 kts | 71° |
| 2026-04-21 01:08 | 36.51577 | -113.72002 | 37090 ft | 454 kts | 71° |
| 2026-04-21 01:09 | 36.53740 | -113.64660 | 37112 ft | 454 kts | 71° |
| 2026-04-21 01:09 | 36.55907 | -113.57290 | 37125 ft | 454 kts | 71° |
| 2026-04-21 01:10 | 36.58065 | -113.49937 | 37134 ft | 454 kts | 71° |
| 2026-04-21 01:10 | 36.60212 | -113.42590 | 37144 ft | 453 kts | 71° |
| 2026-04-21 01:11 | 36.62350 | -113.35256 | 37155 ft | 453 kts | 71° |
| 2026-04-21 01:11 | 36.64501 | -113.27869 | 37163 ft | 452 kts | 71° |
| 2026-04-21 01:12 | 36.66625 | -113.20545 | 37169 ft | 452 kts | 71° |
| 2026-04-21 01:12 | 36.68753 | -113.13187 | 37175 ft | 452 kts | 71° |
| 2026-04-21 01:13 | 36.70857 | -113.05886 | 37174 ft | 452 kts | 71° |
| 2026-04-21 01:13 | 36.72977 | -112.98509 | 37172 ft | 451 kts | 71° |
| 2026-04-21 01:14 | 36.75090 | -112.91143 | 37172 ft | 451 kts | 71° |
| 2026-04-21 01:14 | 36.77179 | -112.83839 | 37167 ft | 450 kts | 71° |
| 2026-04-21 01:15 | 36.79279 | -112.76472 | 37166 ft | 450 kts | 71° |
| 2026-04-21 01:15 | 36.81356 | -112.69164 | 37172 ft | 450 kts | 71° |
| 2026-04-21 01:16 | 36.83439 | -112.61818 | 37180 ft | 450 kts | 71° |
| 2026-04-21 01:16 | 36.85509 | -112.54494 | 37188 ft | 449 kts | 70° |
| 2026-04-21 01:17 | 36.87584 | -112.47132 | 37195 ft | 449 kts | 70° |
| 2026-04-21 01:17 | 36.89647 | -112.39789 | 37202 ft | 448 kts | 70° |
| 2026-04-21 01:18 | 36.91690 | -112.32483 | 37210 ft | 447 kts | 71° |
| 2026-04-21 01:18 | 36.93742 | -112.25175 | 37212 ft | 447 kts | 70° |
| 2026-04-21 01:19 | 36.95780 | -112.17888 | 37208 ft | 446 kts | 70° |
| 2026-04-21 01:19 | 36.97818 | -112.10573 | 37196 ft | 446 kts | 70° |
| 2026-04-21 01:20 | 36.99836 | -112.03314 | 37183 ft | 446 kts | 70° |
| 2026-04-21 01:20 | 37.01871 | -111.95973 | 37188 ft | 446 kts | 70° |
| 2026-04-21 01:21 | 37.03888 | -111.88673 | 37195 ft | 446 kts | 70° |
| 2026-04-21 01:21 | 37.05902 | -111.81364 | 37204 ft | 445 kts | 70° |
| 2026-04-21 01:22 | 37.07896 | -111.74104 | 37205 ft | 445 kts | 70° |
| 2026-04-21 01:22 | 37.09903 | -111.66783 | 37202 ft | 444 kts | 70° |
| 2026-04-21 01:23 | 37.11892 | -111.59500 | 37195 ft | 444 kts | 70° |
| 2026-04-21 01:23 | 37.13891 | -111.52164 | 37191 ft | 444 kts | 70° |